Alpine, Alabama
Current Conditions -  °F | °C
As of 1:15 PM on Thursday 27 Nov 2014 (Local Time) from KSCD Reporting Station
Broken Clouds Broken Clouds  
Wind Chill: 42°   Ceiling: 4500
Heat Index: 47°   Visibility: 10mi
Dew Point: 30°   Wind: 10mph
Humidity: 53%   Direction: 320°NW
Pressure: 30.36"   Gusts: 17mph
Location:  33.34°N, 86.23°W
Report Text: KSCD 271915Z AUTO 32009G15KT 10SM SCT039 BKN045 08/M01 A3036 RMK AO2 T00811010
Loading
Personal Weather Stations






























Interactive Weather Map New forecast layout! Learn more

10-Day Weather Forecast

Advertisements
Track Severe Weather on mobile